Latest Weather Observations for Kempsey Airport

IDN60801

Issued at 4:05 pm EDT Monday 24 November 2014 (issued every 30 minutes, with the page automatically refreshed every 10 minutes)

About weather observations | Map of weather stations | Latest weather observations for NSW | Other Formats
Station Details ID: 059007 Name: KEMPSEY AIRPORT AWS Lat: -31.07 Lon: 152.77 Height: 13.0 m
Data from the previous 72 hours. | See also: Recent months for locations in New South Wales
Date/Time
EDT
Temp
°C
App
Temp
°C
Dew
Point
Rel
Hum
%
Delta-T
°C
Wind Press
QNH
hPa
Press
MSL
hPa
Rain
since 9 am
mm
Dir
 
Spd
km/h
Gust
km/h
Spd
kts
Gust
kts
24/04:00pm 30.3 30.9 20.2 54 6.7 E 17 22 9 12 1007.6 1007.5 0.0
24/03:30pm 30.5 30.2 20.4 54 6.7 E 22 30 12 16 1008.0 1007.9 0.0
24/03:00pm 31.0 30.7 20.3 53 7.1 E 22 30 12 16 1008.3 1008.2 0.0
24/02:30pm 31.6 31.4 21.2 54 7.0 E 24 32 13 17 1009.2 1009.1 0.0
24/02:00pm 31.8 32.4 21.3 53 7.1 E 20 32 11 17 1009.8 1009.7 0.0
24/01:30pm 32.8 33.2 21.0 50 7.9 E 20 28 11 15 1010.2 1010.1 0.0
24/01:00pm 32.9 32.6 21.1 50 7.9 E 24 32 13 17 1010.7 1010.6 0.0
24/12:30pm 32.9 34.0 22.4 54 7.2 E 20 30 11 16 1011.2 1011.1 0.0
24/12:00pm 31.1 31.1 20.1 52 7.3 E 20 26 11 14 1011.7 1011.6 0.0
24/11:30am 31.4 31.1 20.4 52 7.3 E 22 30 12 16 1012.2 1012.1 0.0
24/11:00am 32.2 33.7 20.5 50 7.8 ENE 13 20 7 11 1012.5 1012.4 0.0
24/10:30am 31.3 32.1 17.2 42 9.0 NE 9 15 5 8 1013.0 1012.9 0.0
24/10:00am 29.7 31.4 18.5 51 7.2 NNE 7 9 4 5 1013.4 1013.3 0.0
24/09:30am 27.6 29.6 19.1 59 5.5 NE 7 11 4 6 1013.6 1013.5 0.0
24/09:00am 25.5 28.2 19.4 69 3.9 NE 4 7 2 4 1013.8 1013.7 0.0
24/08:30am 23.8 27.2 19.3 76 2.9 CALM 0 0 0 0 1014.0 1013.9 0.0
24/08:00am 22.5 25.4 19.9 85 1.7 SE 4 6 2 3 1013.9 1013.8 0.0
24/07:30am 21.2 24.8 19.7 91 1.0 CALM 0 0 0 0 1013.9 1013.8 0.0
24/07:00am 20.3 22.5 19.1 93 0.8 SE 6 6 3 3 1013.9 1013.8 0.0
24/06:30am 19.6 21.0 18.6 94 0.6 W 9 11 5 6 1013.9 1013.8 0.0
24/06:00am 17.8 20.1 16.7 93 0.7 CALM 0 0 0 0 1013.1 1013.0 0.0
24/05:30am 17.8 18.9 16.7 93 0.7 NE 6 9 3 5 1012.9 1012.8 0.0
24/05:00am 18.2 20.6 16.9 92 0.8 CALM 0 0 0 0 1012.4 1012.3 0.0
24/04:30am 18.8 21.3 17.3 91 0.9 CALM 0 0 0 0 1012.5 1012.4 0.0
24/04:00am 19.0 21.5 17.3 90 1.0 CALM 0 0 0 0 1012.5 1012.4 0.0
24/03:30am 20.1 22.3 18.4 90 1.1 N 4 9 2 5 1012.6 1012.5 0.0
24/03:00am 20.0 21.7 18.5 91 0.9 E 7 9 4 5 1012.6 1012.5 0.0
24/02:30am 19.6 21.1 17.7 89 1.2 SSE 6 7 3 4 1013.0 1012.9 0.0
24/02:00am 19.8 21.7 16.8 83 1.8 E 2 7 1 4 1013.2 1013.1 0.0
24/01:30am 21.1 22.6 18.1 83 1.9 NE 7 9 4 5 1013.4 1013.3 0.0
24/01:00am 21.5 23.9 17.9 80 2.2 SW 2 9 1 5 1013.4 1013.3 0.0
24/12:30am 22.9 25.9 18.4 76 2.8 CALM 0 6 0 3 1013.7 1013.6 0.0
24/12:00am 24.0 24.4 18.2 70 3.6 NE 13 17 7 9 1013.7 1013.6 0.0
 
Date/Time
EDT
Temp
°C
App
Temp
°C
Dew
Point
Rel
Hum
%
Delta-T
°C
Wind Press
QNH
hPa
Press
MSL
hPa
Rain
since 9 am
mm
Dir
 
Spd
km/h
Gust
km/h
Spd
kts
Gust
kts
23/11:30pm 25.5 25.5 17.2 60 5.2 E 13 20 7 11 1013.7 1013.6 0.0
23/11:00pm 26.2 27.1 16.7 56 5.9 E 7 15 4 8 1012.8 1012.7 0.0
23/10:30pm 26.5 26.1 16.1 52 6.4 WNW 13 20 7 11 1012.1 1012.0 0.0
23/10:00pm 27.6 27.0 14.6 45 7.8 NW 11 17 6 9 1011.8 1011.7 0.0
23/09:30pm 28.3 24.8 14.5 43 8.3 NW 26 39 14 21 1010.9 1010.8 0.0
23/09:00pm 27.0 23.6 15.7 50 6.9 WNW 28 39 15 21 1010.0 1009.9 0.0
23/08:30pm 29.5 24.4 13.7 38 9.5 NW 33 43 18 23 1010.4 1010.3 0.0
23/08:00pm 28.7 25.0 14.9 43 8.4 NNW 28 35 15 19 1011.9 1011.8 0.0
23/07:30pm 27.6 25.5 17.2 53 6.5 W 24 35 13 19 1013.1 1013.0 0.0
23/07:24pm 28.1 25.2 17.0 51 7.0 WNW 28 43 15 23 1012.9 1012.8 0.0
23/07:00pm 26.6 27.8 20.0 67 4.3 WNW 13 17 7 9 1012.5 1012.4 0.0
23/06:30pm 24.4 27.2 20.9 81 2.3 ENE 7 15 4 8 1011.8 1011.7 0.0
23/06:00pm 24.9 29.0 20.8 78 2.7 SSE 0 6 0 3 1011.8 1011.7 0.0
23/05:30pm 25.6 27.0 20.4 73 3.4 ENE 13 17 7 9 1011.2 1011.1 0.0
23/05:00pm 27.0 28.6 20.8 69 4.1 S 13 15 7 8 1011.0 1010.9 0.0
23/04:30pm 27.6 29.9 20.7 66 4.6 SSE 9 13 5 7 1010.4 1010.3 0.0
23/04:00pm 29.0 29.4 20.7 61 5.5 E 19 26 10 14 1009.3 1009.2 0.0
23/03:30pm 29.8 30.5 21.5 61 5.6 E 20 26 11 14 1009.1 1009.0 0.0
23/03:00pm 30.4 29.5 21.5 59 6.0 E 28 39 15 21 1009.4 1009.3 0.0
23/02:30pm 32.7 32.6 22.2 54 7.2 E 26 33 14 18 1009.5 1009.4 0.0
23/02:00pm 33.3 32.6 21.8 51 7.8 E 28 39 15 21 1009.5 1009.4 0.0
23/01:30pm 33.8 33.2 21.9 49 8.1 E 28 37 15 20 1009.8 1009.7 0.0
23/01:00pm 34.2 34.9 22.9 51 7.8 E 24 33 13 18 1010.3 1010.2 0.0
23/12:30pm 34.2 35.8 23.9 55 7.2 E 22 30 12 16 1010.7 1010.6 0.0
23/12:00pm 33.4 35.1 23.4 55 6.9 E 20 24 11 13 1011.1 1011.0 0.0
23/11:30am 32.8 34.5 23.4 57 6.5 E 20 24 11 13 1011.5 1011.4 0.0
23/11:00am 32.3 33.9 23.3 59 6.2 E 20 24 11 13 1011.7 1011.6 0.0
23/10:30am 32.2 35.1 21.7 54 7.1 NE 9 17 5 9 1012.1 1012.0 0.0
23/10:00am 30.3 32.5 21.1 58 6.2 NE 11 15 6 8 1012.5 1012.4 0.0
23/09:30am 28.9 31.4 21.7 65 4.8 NE 11 20 6 11 1012.5 1012.4 0.0
23/09:00am 27.5 30.3 21.5 70 4.0 ENE 9 13 5 7 1012.7 1012.6 0.2
23/08:30am 26.1 29.6 20.4 71 3.7 ESE 2 9 1 5 1012.9 1012.8 0.2
23/08:00am 24.8 27.5 20.3 76 2.9 N 6 9 3 5 1012.9 1012.8 0.2
23/07:30am 23.5 25.1 20.0 81 2.3 N 11 15 6 8 1012.8 1012.7 0.2
23/07:00am 22.6 24.3 20.1 86 1.6 N 11 15 6 8 1012.6 1012.5 0.2
23/06:30am 21.0 23.3 19.5 91 1.0 N 6 7 3 4 1012.5 1012.4 0.2
23/06:00am 20.1 21.6 18.8 92 0.8 N 9 11 5 6 1012.4 1012.3 0.2
23/05:30am 20.1 21.8 18.6 91 0.9 NNW 7 9 4 5 1012.3 1012.2 0.2
23/05:00am 20.5 22.0 19.0 91 0.9 WNW 9 9 5 5 1012.1 1012.0 0.2
23/04:30am 21.2 24.5 19.1 88 1.3 CALM 0 0 0 0 1012.0 1011.9 0.2
23/04:00am 21.5 23.7 19.2 87 1.5 WSW 6 7 3 4 1012.3 1012.2 0.2
23/03:30am 22.2 24.6 19.6 85 1.7 W 6 9 3 5 1012.4 1012.3 0.2
23/03:00am 22.9 25.1 20.4 86 1.6 N 9 15 5 8 1012.4 1012.3 0.2
23/02:30am 22.6 24.7 20.1 86 1.6 N 9 11 5 6 1012.6 1012.5 0.2
23/02:00am 21.9 24.5 20.0 89 1.2 N 6 7 3 4 1012.9 1012.8 0.2
23/01:30am 21.3 23.8 19.8 91 1.0 N 6 7 3 4 1013.4 1013.3 0.2
23/01:00am 20.8 23.6 18.9 89 1.2 NNE 2 6 1 3 1013.7 1013.6 0.2
23/12:30am 21.2 24.6 19.3 89 1.2 CALM 0 0 0 0 1014.0 1013.9 0.2
23/12:00am 21.3 24.2 19.0 87 1.5 NNE 2 7 1 4 1014.3 1014.2 0.2
 
Date/Time
EDT
Temp
°C
App
Temp
°C
Dew
Point
Rel
Hum
%
Delta-T
°C
Wind Press
QNH
hPa
Press
MSL
hPa
Rain
since 9 am
mm
Dir
 
Spd
km/h
Gust
km/h
Spd
kts
Gust
kts
22/11:30pm 21.7 23.9 19.3 86 1.5 N 6 9 3 5 1014.5 1014.4 0.2
22/11:00pm 22.0 23.7 19.4 85 1.7 N 9 13 5 7 1014.7 1014.6 0.2
22/10:30pm 22.4 24.2 19.6 84 1.8 NNE 9 11 5 6 1014.7 1014.6 0.2
22/10:00pm 22.6 24.4 19.6 83 1.9 NNE 9 11 5 6 1014.7 1014.6 0.2
22/09:30pm 22.3 24.0 19.3 83 1.9 N 9 15 5 8 1014.5 1014.4 0.2
22/09:00pm 22.2 23.5 19.2 83 1.9 NNE 11 15 6 8 1014.2 1014.1 0.2
22/08:30pm 22.6 24.0 19.6 83 1.9 NE 11 15 6 8 1013.9 1013.8 0.2
22/08:00pm 22.8 24.5 19.4 81 2.2 ENE 9 13 5 7 1013.8 1013.7 0.2
22/07:30pm 22.7 24.8 19.3 81 2.2 ENE 7 11 4 6 1013.7 1013.6 0.2
22/07:00pm 23.1 24.4 19.3 79 2.4 ENE 11 15 6 8 1013.2 1013.1 0.2
22/06:30pm 23.7 24.6 19.2 76 2.9 NE 13 22 7 12 1012.8 1012.7 0.2
22/06:00pm 24.3 25.0 19.6 75 3.0 ENE 15 22 8 12 1012.5 1012.4 0.2
22/05:30pm 24.9 24.5 19.3 71 3.6 NE 20 28 11 15 1012.1 1012.0 0.2
22/05:00pm 26.3 26.1 19.7 67 4.3 NE 20 30 11 16 1012.0 1011.9 0.2
22/04:30pm 27.7 27.8 20.0 63 5.0 ENE 19 24 10 13 1011.8 1011.7 0.2
22/04:00pm 28.0 28.0 19.8 61 5.4 ENE 19 28 10 15 1011.7 1011.6 0.2
22/03:30pm 28.6 28.5 19.5 58 5.9 ENE 19 28 10 15 1011.7 1011.6 0.2
22/03:00pm 29.1 28.9 19.7 57 6.1 ENE 20 28 11 15 1011.6 1011.5 0.2
22/02:30pm 29.5 29.5 20.1 57 6.2 E 20 32 11 17 1011.6 1011.5 0.2
22/02:00pm 29.4 29.3 20.0 57 6.2 E 20 28 11 15 1011.6 1011.5 0.2
22/01:30pm 29.9 30.1 20.2 56 6.4 ENE 19 28 10 15 1011.7 1011.6 0.2
22/01:00pm 29.8 29.9 20.4 57 6.2 ENE 20 28 11 15 1011.9 1011.8 0.2
22/12:30pm 29.8 29.9 20.4 57 6.2 NE 20 28 11 15 1012.2 1012.1 0.2
22/12:00pm 30.7 32.4 19.4 51 7.4 NNE 9 19 5 10 1012.5 1012.4 0.2
22/11:30am 29.5 30.8 19.2 54 6.7 NE 11 17 6 9 1012.9 1012.8 0.2
22/11:00am 28.6 30.4 18.4 54 6.5 NE 6 13 3 7 1013.3 1013.2 0.2
22/10:30am 27.9 29.5 18.3 56 6.1 SSE 7 15 4 8 1013.7 1013.6 0.2
22/10:00am 27.3 28.0 18.0 56 5.9 S 11 17 6 9 1013.8 1013.7 0.2
22/09:30am 26.5 27.0 18.4 61 5.2 SSW 13 28 7 15 1013.9 1013.8 0.2
22/09:00am 25.6 25.2 18.8 66 4.3 SSW 19 24 10 13 1014.2 1014.1 7.2
22/08:30am 25.7 25.5 19.8 70 3.8 SW 20 26 11 14 1014.1 1014.0 7.2
22/08:00am 24.8 26.8 19.2 71 3.6 SSW 7 13 4 7 1013.8 1013.7 7.2
22/07:30am 23.4 25.9 19.1 77 2.7 WSW 4 9 2 5 1013.5 1013.4 7.2
22/07:00am 22.3 24.2 19.7 85 1.7 WSW 9 13 5 7 1013.3 1013.2 7.2
22/06:30am 21.0 22.6 19.1 89 1.2 WSW 9 11 5 6 1013.1 1013.0 7.2
22/06:00am 20.6 21.6 18.7 89 1.2 SSW 11 13 6 7 1012.6 1012.5 7.2
22/05:30am 20.3 22.0 18.4 89 1.2 SW 7 9 4 5 1012.2 1012.1 7.2
22/05:00am 21.1 22.3 19.0 88 1.3 SSE 11 15 6 8 1011.6 1011.5 7.2
22/04:30am 21.3 22.6 19.2 88 1.3 SE 11 13 6 7 1011.2 1011.1 7.2
22/04:00am 21.8 23.0 19.9 89 1.2 SE 13 22 7 12 1010.6 1010.5 7.2
22/03:30am 22.0 23.9 20.6 92 0.9 SE 11 15 6 8 1010.3 1010.2 7.2
22/03:00am 21.3 23.6 19.9 92 0.9 ESE 7 11 4 6 1009.8 1009.7 7.2
22/02:30am 21.5 23.6 20.1 92 0.9 SSE 9 13 5 7 1009.5 1009.4 7.2
22/02:00am 21.6 22.9 20.2 92 0.9 S 13 19 7 10 1009.6 1009.5 7.2
22/01:30am 21.5 23.6 20.1 92 0.9 SSE 9 13 5 7 1009.3 1009.2 7.2
22/01:00am 21.6 23.3 20.1 91 1.0 S 11 15 6 8 1009.1 1009.0 7.2
22/12:30am 22.1 24.8 20.6 91 1.0 NNE 7 11 4 6 1009.0 1008.9 7.2
22/12:00am 21.9 24.6 20.2 90 1.1 SE 6 7 3 4 1009.3 1009.2 4.8
 
Date/Time
EDT
Temp
°C
App
Temp
°C
Dew
Point
Rel
Hum
%
Delta-T
°C
Wind Press
QNH
hPa
Press
MSL
hPa
Rain
since 9 am
mm
Dir
 
Spd
km/h
Gust
km/h
Spd
kts
Gust
kts
21/11:30pm 22.0 24.4 20.1 89 1.2 SE 7 9 4 5 1009.1 1009.0 4.8
21/11:00pm 22.2 24.5 19.9 87 1.5 SE 7 9 4 5 1008.9 1008.8 4.8
21/10:30pm 23.1 25.3 20.4 85 1.8 E 9 9 5 5 1008.8 1008.7 4.8
21/10:00pm 23.9 25.4 20.6 82 2.2 ENE 13 19 7 10 1008.7 1008.6 4.8
21/09:30pm 24.3 25.9 20.8 81 2.3 ENE 13 20 7 11 1008.7 1008.6 4.8
21/09:00pm 24.2 26.8 20.5 80 2.4 NE 7 11 4 6 1008.5 1008.4 4.8
21/08:30pm 24.6 26.8 20.5 78 2.7 NNE 9 13 5 7 1008.3 1008.2 4.8
21/08:00pm 25.4 27.2 20.4 74 3.3 E 11 17 6 9 1007.8 1007.7 4.8
21/07:30pm 25.7 27.9 20.5 73 3.4 N 9 15 5 8 1007.9 1007.8 4.8
21/07:00pm 26.6 28.3 20.2 68 4.2 N 11 20 6 11 1007.3 1007.2 4.8
21/06:30pm 27.9 27.9 20.2 63 5.0 NNE 20 28 11 15 1006.9 1006.8 4.8
21/06:00pm 29.7 30.2 20.8 58 5.9 NNE 19 26 10 14 1006.2 1006.1 4.8
21/05:30pm 30.4 30.7 20.3 54 6.7 NNE 19 26 10 14 1005.9 1005.8 4.8
21/05:00pm 30.0 29.2 20.0 55 6.6 N 24 32 13 17 1005.8 1005.7 4.8
21/04:30pm 30.0 33.3 21.9 62 5.5 NE 7 11 4 6 1006.0 1005.9 4.8

Other Formats:

Comma delimited format used in spreadsheet applications
http://www.bom.gov.au/fwo/IDN60801/IDN60801.94785.axf

JavaScript Object Notation format (JSON) in row-major order
http://www.bom.gov.au/fwo/IDN60801/IDN60801.94785.json